createdAt,value
2023-07-21T00:00:15.453Z,101390.13
2023-07-21T00:02:44.521Z,101389.13
2023-07-21T00:05:17.228Z,101389.13
2023-07-21T00:07:49.225Z,101389.13
2023-07-21T00:10:23.180Z,101390.50
2023-07-21T00:12:52.132Z,101384.94
2023-07-21T00:15:19.841Z,101380.34
2023-07-21T00:17:48.473Z,101383.31
2023-07-21T00:20:23.450Z,101380.16
2023-07-21T00:22:50.409Z,101381.31
2023-07-21T00:25:17.065Z,101380.31
2023-07-21T00:27:44.758Z,101384.13
2023-07-21T00:30:14.572Z,101383.91
2023-07-21T00:32:43.548Z,101381.69
2023-07-21T00:35:11.278Z,101370.53
2023-07-21T00:37:42.972Z,101377.09
2023-07-21T00:40:30.359Z,101379.47
2023-07-21T00:42:58.989Z,101373.28
2023-07-21T00:45:28.707Z,101380.47
2023-07-21T00:47:57.882Z,101373.72
2023-07-21T00:50:26.996Z,101373.13
2023-07-21T00:52:53.700Z,101372.53
2023-07-21T00:55:20.772Z,101371.50
2023-07-21T00:57:49.965Z,101370.69
2023-07-21T01:00:19.175Z,101375.28
2023-07-21T01:02:50.777Z,101364.13
2023-07-21T01:05:25.012Z,101367.47
2023-07-21T01:07:52.114Z,101355.50
2023-07-21T01:10:22.893Z,101350.72
2023-07-21T01:12:49.624Z,101347.31
2023-07-21T01:15:17.000Z,101347.28
2023-07-21T01:17:44.069Z,101350.66
2023-07-21T01:20:16.085Z,101344.88
2023-07-21T01:22:54.109Z,101342.28
2023-07-21T01:25:22.760Z,101347.63
2023-07-21T01:27:51.761Z,101343.44
2023-07-21T01:30:26.368Z,101342.44
2023-07-21T01:32:56.943Z,101338.47
2023-07-21T01:35:24.653Z,101335.22
2023-07-21T01:37:51.313Z,101334.81
2023-07-21T01:40:18.464Z,101335.03
2023-07-21T01:42:47.277Z,101321.34
2023-07-21T01:45:16.630Z,101327.50
2023-07-21T01:47:47.299Z,101318.16
2023-07-21T01:50:20.325Z,101317.50
2023-07-21T01:52:50.225Z,101306.72
2023-07-21T01:55:34.081Z,101308.25
2023-07-21T01:58:04.738Z,101317.88
2023-07-21T02:00:49.722Z,101310.75
2023-07-21T02:03:18.617Z,101304.56
2023-07-21T02:05:45.306Z,101306.38
2023-07-21T02:08:14.258Z,101303.41
2023-07-21T02:10:45.634Z,101306.63
2023-07-21T02:13:12.840Z,101300.66
2023-07-21T02:15:39.581Z,101296.66
2023-07-21T02:18:08.441Z,101300.00
2023-07-21T02:20:37.480Z,101295.97
2023-07-21T02:23:04.028Z,101299.28
2023-07-21T02:25:32.911Z,101295.69
2023-07-21T02:28:01.689Z,101292.50
2023-07-21T02:30:33.052Z,101295.28
2023-07-21T02:33:01.939Z,101292.84
2023-07-21T02:35:31.296Z,101292.19
2023-07-21T02:38:02.945Z,101287.53
2023-07-21T02:40:33.083Z,101289.88
2023-07-21T02:42:59.710Z,101294.25
2023-07-21T02:45:28.398Z,101295.16
2023-07-21T02:47:57.259Z,101290.63
2023-07-21T02:50:25.339Z,101285.81
2023-07-21T02:52:56.003Z,101288.97
2023-07-21T02:55:22.679Z,101284.72
2023-07-21T02:57:53.125Z,101289.34
2023-07-21T03:00:21.896Z,101292.34
2023-07-21T03:02:51.420Z,101293.91
2023-07-21T03:05:23.682Z,101298.28
2023-07-21T03:07:50.296Z,101299.72
2023-07-21T03:10:19.286Z,101296.34
2023-07-21T03:12:48.689Z,101297.88
2023-07-21T03:15:16.222Z,101294.59
2023-07-21T03:17:44.975Z,101296.34
2023-07-21T03:20:16.744Z,101289.34
2023-07-21T03:22:44.362Z,101293.81
2023-07-21T03:25:12.259Z,101287.41
2023-07-21T03:27:41.604Z,101282.44
2023-07-21T03:30:10.950Z,101279.69
2023-07-21T03:32:38.309Z,101286.25
2023-07-21T03:35:06.189Z,101279.88
2023-07-21T03:37:35.875Z,101291.72
2023-07-21T03:40:16.173Z,101280.16
2023-07-21T03:42:46.164Z,101291.44
2023-07-21T03:45:14.767Z,101285.84
2023-07-21T03:47:41.391Z,101288.88
2023-07-21T03:50:09.460Z,101290.91
2023-07-21T03:52:37.230Z,101288.03
2023-07-21T03:55:04.732Z,101289.69
2023-07-21T03:57:41.207Z,101293.50
2023-07-21T04:00:09.003Z,101291.91
2023-07-21T04:02:35.982Z,101284.00
2023-07-21T04:05:04.805Z,101284.97
2023-07-21T04:07:32.573Z,101276.84
2023-07-21T04:10:03.911Z,101274.34
2023-07-21T04:12:30.454Z,101269.44
2023-07-21T04:14:56.985Z,101259.75
2023-07-21T04:17:25.810Z,101265.09
2023-07-21T04:19:54.740Z,101257.94
2023-07-21T04:22:24.105Z,101258.56
2023-07-21T04:24:50.742Z,101255.56
2023-07-21T04:27:17.429Z,101254.59
2023-07-21T04:29:49.033Z,101252.41
2023-07-21T04:32:15.605Z,101260.78
2023-07-21T04:34:44.463Z,101263.13
2023-07-21T04:37:11.034Z,101259.53
2023-07-21T04:39:37.689Z,101259.78
2023-07-21T04:42:07.145Z,101256.22
2023-07-21T04:44:33.843Z,101256.66
2023-07-21T04:47:00.448Z,101258.44
2023-07-21T04:49:26.948Z,101256.34
2023-07-21T04:51:53.458Z,101257.78
2023-07-21T04:54:24.750Z,101260.00
2023-07-21T04:56:53.741Z,101248.25
2023-07-21T04:59:27.393Z,101254.69
2023-07-21T05:01:58.154Z,101251.50
2023-07-21T05:04:24.719Z,101257.94
2023-07-21T05:06:51.402Z,101255.03
2023-07-21T05:09:21.080Z,101256.13
2023-07-21T05:11:47.662Z,101245.06
2023-07-21T05:14:19.057Z,101253.28
2023-07-21T05:16:45.733Z,101251.69
2023-07-21T05:19:12.234Z,101242.78
2023-07-21T05:21:38.862Z,101241.13
2023-07-21T05:24:05.566Z,101239.81
2023-07-21T05:26:34.502Z,101249.38
2023-07-21T05:29:00.999Z,101249.41
2023-07-21T05:31:29.907Z,101250.41
2023-07-21T05:33:58.882Z,101260.75
2023-07-21T05:36:26.430Z,101253.63
2023-07-21T05:38:53.336Z,101257.22
2023-07-21T05:41:23.478Z,101258.31
2023-07-21T05:43:49.973Z,101257.44
2023-07-21T05:46:19.081Z,101248.19
2023-07-21T05:48:45.731Z,101256.97
2023-07-21T05:51:13.567Z,101250.88
2023-07-21T05:53:43.156Z,101253.25
2023-07-21T05:56:09.723Z,101253.81
2023-07-21T05:58:38.380Z,101256.22
2023-07-21T06:01:05.260Z,101249.44
2023-07-21T06:03:32.223Z,101246.16
2023-07-21T06:05:59.058Z,101253.00
2023-07-21T06:08:28.213Z,101237.97
2023-07-21T06:11:00.685Z,101230.88
2023-07-21T06:13:30.958Z,101241.03
2023-07-21T06:15:59.760Z,101238.53
2023-07-21T06:18:26.339Z,101241.91
2023-07-21T06:20:55.414Z,101244.16
2023-07-21T06:23:21.967Z,101240.19
2023-07-21T06:25:49.158Z,101242.47
2023-07-21T06:28:15.912Z,101236.63
2023-07-21T06:30:42.524Z,101237.16
2023-07-21T06:33:10.092Z,101231.69
2023-07-21T06:35:42.683Z,101234.91
2023-07-21T06:38:13.965Z,101230.13
2023-07-21T06:40:40.529Z,101227.47
2023-07-21T06:43:07.080Z,101230.94
2023-07-21T06:45:34.776Z,101226.44
2023-07-21T06:48:04.491Z,101224.31
2023-07-21T06:50:30.989Z,101228.78
2023-07-21T06:52:57.540Z,101224.00
2023-07-21T06:55:24.050Z,101221.13
2023-07-21T06:57:50.710Z,101227.75
2023-07-21T07:00:17.455Z,101228.00
2023-07-21T07:02:50.392Z,101229.00
2023-07-21T07:05:20.307Z,101223.88
2023-07-21T07:07:47.070Z,101223.34
2023-07-21T07:10:13.631Z,101224.88
2023-07-21T07:12:42.501Z,101225.72
2023-07-21T07:15:10.318Z,101221.56
2023-07-21T07:17:39.219Z,101218.81
2023-07-21T07:20:08.413Z,101213.47
2023-07-21T07:22:37.228Z,101222.78
2023-07-21T07:25:06.786Z,101219.22
2023-07-21T07:27:33.370Z,101226.03
2023-07-21T07:29:59.858Z,101225.88
2023-07-21T07:32:26.503Z,101232.84
2023-07-21T07:34:59.867Z,101240.25
2023-07-21T07:37:27.979Z,101243.94
2023-07-21T07:39:54.528Z,101239.94
2023-07-21T07:42:23.727Z,101238.47
2023-07-21T07:44:52.260Z,101231.09
2023-07-21T07:47:21.104Z,101232.34
2023-07-21T07:49:47.805Z,101230.28
2023-07-21T07:52:19.759Z,101229.03
2023-07-21T07:54:46.360Z,101235.63
2023-07-21T07:57:15.768Z,101234.16
2023-07-21T07:59:48.276Z,101232.56
2023-07-21T08:02:14.844Z,101239.25
2023-07-21T08:04:41.468Z,101233.81
2023-07-21T08:07:10.977Z,101231.31
2023-07-21T08:09:39.772Z,101237.06
2023-07-21T08:12:06.612Z,101230.41
2023-07-21T08:14:33.258Z,101232.06
2023-07-21T08:17:03.703Z,101237.97
2023-07-21T08:19:35.641Z,101237.66
2023-07-21T08:22:06.253Z,101237.75
2023-07-21T08:24:33.637Z,101245.69
2023-07-21T08:27:00.510Z,101230.72
2023-07-21T08:29:27.369Z,101239.84
2023-07-21T08:31:56.471Z,101242.38
2023-07-21T08:34:23.050Z,101237.63
2023-07-21T08:36:54.578Z,101232.72
2023-07-21T08:39:25.298Z,101240.41
2023-07-21T08:41:54.214Z,101234.59
2023-07-21T08:44:23.784Z,101230.69
2023-07-21T08:46:52.896Z,101238.25
2023-07-21T08:49:19.574Z,101233.41
2023-07-21T08:51:46.388Z,101232.16
2023-07-21T08:54:15.803Z,101227.16
2023-07-21T08:56:44.585Z,101230.06
2023-07-21T08:59:15.943Z,101222.91
2023-07-21T09:01:46.758Z,101227.31
2023-07-21T09:04:20.687Z,101223.81
2023-07-21T09:07:06.760Z,101221.63
2023-07-21T09:09:33.608Z,101222.22
2023-07-21T09:12:08.295Z,101225.94
2023-07-21T09:14:41.833Z,101221.25
2023-07-21T09:17:12.697Z,101223.66
2023-07-21T09:19:45.170Z,101220.94
2023-07-21T09:22:14.968Z,101224.78
2023-07-21T09:24:52.768Z,101221.84
2023-07-21T09:27:23.367Z,101219.66
2023-07-21T09:29:52.371Z,101217.41
2023-07-21T09:32:22.587Z,101215.88
2023-07-21T09:35:07.983Z,101217.75
2023-07-21T09:37:35.659Z,101206.78
2023-07-21T09:40:11.228Z,101217.56
2023-07-21T09:42:39.483Z,101212.84
2023-07-21T09:45:09.859Z,101214.41
2023-07-21T09:47:45.065Z,101218.34
2023-07-21T09:50:16.361Z,101214.91
2023-07-21T09:52:47.866Z,101213.53
2023-07-21T09:55:22.529Z,101211.41
2023-07-21T09:57:53.065Z,101209.28
2023-07-21T10:00:28.120Z,101200.47
2023-07-21T10:02:57.586Z,101203.34
2023-07-21T10:05:24.360Z,101199.19
2023-07-21T10:07:51.794Z,101209.13
2023-07-21T10:10:19.655Z,101199.84
2023-07-21T10:12:47.786Z,101206.13
2023-07-21T10:15:34.569Z,101197.41
2023-07-21T10:18:02.741Z,101199.84
2023-07-21T10:20:44.452Z,101203.56
2023-07-21T10:23:15.645Z,101181.31
2023-07-21T10:26:02.397Z,101190.50
2023-07-21T10:28:31.640Z,101189.16
2023-07-21T10:31:26.117Z,101191.00
2023-07-21T10:34:15.454Z,101193.28
2023-07-21T10:36:54.211Z,101194.97
2023-07-21T10:39:24.383Z,101193.22
2023-07-21T10:41:59.642Z,101185.94
2023-07-21T10:44:39.492Z,101188.91
2023-07-21T10:47:20.561Z,101191.03
2023-07-21T10:49:53.487Z,101193.63
2023-07-21T10:52:20.781Z,101190.72
2023-07-21T10:54:51.979Z,101180.50
2023-07-21T10:57:18.559Z,101190.78
2023-07-21T10:59:47.506Z,101191.00
2023-07-21T11:02:27.541Z,101194.53
2023-07-21T11:04:54.208Z,101192.59
2023-07-21T11:07:28.637Z,101188.06
2023-07-21T11:10:01.451Z,101183.84
2023-07-21T11:12:29.960Z,101182.25
2023-07-21T11:14:57.154Z,101185.00
2023-07-21T11:17:26.034Z,101182.91
2023-07-21T11:20:05.790Z,101178.69
2023-07-21T11:22:39.326Z,101172.00
2023-07-21T11:25:12.095Z,101176.06
2023-07-21T11:27:46.500Z,101174.75
2023-07-21T11:30:19.937Z,101182.25
2023-07-21T11:32:49.482Z,101187.38
2023-07-21T11:35:16.193Z,101190.06
2023-07-21T11:37:45.982Z,101186.19
2023-07-21T11:40:20.761Z,101194.13
2023-07-21T11:42:49.314Z,101192.69
2023-07-21T11:45:35.530Z,101194.19
2023-07-21T11:48:14.066Z,101202.31
2023-07-21T11:50:53.619Z,101209.22
2023-07-21T11:53:24.936Z,101212.09
2023-07-21T11:55:54.670Z,101219.69
2023-07-21T11:58:22.509Z,101212.53
2023-07-21T12:00:50.408Z,101214.75
2023-07-21T12:03:19.649Z,101211.50
2023-07-21T12:05:49.050Z,101218.44
2023-07-21T12:08:15.552Z,101225.25
2023-07-21T12:10:44.545Z,101217.91
2023-07-21T12:13:15.941Z,101217.25
2023-07-21T12:15:46.759Z,101222.28
2023-07-21T12:18:16.147Z,101221.97
2023-07-21T12:20:42.835Z,101225.88
2023-07-21T12:23:12.001Z,101219.97
2023-07-21T12:25:39.680Z,101204.88
2023-07-21T12:28:08.458Z,101211.59
2023-07-21T12:30:39.618Z,101217.66
2023-07-21T12:33:08.662Z,101210.72
2023-07-21T12:35:35.271Z,101209.75
2023-07-21T12:38:04.090Z,101213.13
2023-07-21T12:40:31.039Z,101219.78
2023-07-21T12:43:00.890Z,101217.88
2023-07-21T12:45:28.714Z,101222.63
2023-07-21T12:47:58.377Z,101221.78
2023-07-21T12:50:26.524Z,101217.44
2023-07-21T12:52:55.634Z,101216.69
2023-07-21T12:55:22.127Z,101223.09
2023-07-21T12:57:53.409Z,101227.78
2023-07-21T13:00:19.951Z,101224.38
2023-07-21T13:02:46.962Z,101233.06
2023-07-21T13:05:15.805Z,101233.22
2023-07-21T13:07:45.609Z,101237.28
2023-07-21T13:10:15.616Z,101238.03
2023-07-21T13:12:44.470Z,101237.91
2023-07-21T13:15:11.086Z,101225.00
2023-07-21T13:17:37.820Z,101231.16
2023-07-21T13:20:14.898Z,101231.47
2023-07-21T13:22:45.076Z,101235.25
2023-07-21T13:25:11.923Z,101237.59
2023-07-21T13:27:41.056Z,101239.97
2023-07-21T13:30:12.115Z,101241.53
2023-07-21T13:32:43.593Z,101237.34
2023-07-21T13:35:10.341Z,101245.56
2023-07-21T13:37:36.996Z,101235.94
2023-07-21T13:40:07.243Z,101233.44
2023-07-21T13:42:38.684Z,101238.97
2023-07-21T13:45:05.707Z,101229.56
2023-07-21T13:47:34.893Z,101240.03
2023-07-21T13:50:01.627Z,101239.91
2023-07-21T13:52:28.950Z,101237.81
2023-07-21T13:54:55.562Z,101235.38
2023-07-21T13:57:26.544Z,101233.97
2023-07-21T13:59:54.269Z,101234.28
2023-07-21T14:02:20.829Z,101235.53
2023-07-21T14:04:48.360Z,101237.47
2023-07-21T14:07:14.885Z,101234.59
2023-07-21T14:09:41.493Z,101228.56
2023-07-21T14:12:08.260Z,101225.91
2023-07-21T14:14:34.803Z,101231.16
2023-07-21T14:17:01.494Z,101232.41
2023-07-21T14:19:28.252Z,101237.81
2023-07-21T14:21:54.825Z,101231.47
2023-07-21T14:24:21.460Z,101226.63
2023-07-21T14:26:51.447Z,101239.56
2023-07-21T14:29:22.504Z,101235.81
2023-07-21T14:31:51.292Z,101236.41
2023-07-21T14:34:18.040Z,101234.69
2023-07-21T14:36:46.900Z,101231.53
2023-07-21T14:39:19.298Z,101240.25
2023-07-21T14:41:46.263Z,101237.63
2023-07-21T14:44:16.251Z,101234.50
2023-07-21T14:46:45.168Z,101245.09
2023-07-21T14:49:13.874Z,101245.09
2023-07-21T14:51:40.714Z,101242.81
2023-07-21T14:54:07.724Z,101239.88
2023-07-21T14:56:34.321Z,101237.81
2023-07-21T14:59:02.588Z,101240.09
2023-07-21T15:01:31.276Z,101248.81
2023-07-21T15:03:58.714Z,101239.88
2023-07-21T15:06:25.478Z,101246.25
2023-07-21T15:08:54.784Z,101253.91
2023-07-21T15:11:21.389Z,101248.16
2023-07-21T15:13:52.341Z,101258.34
2023-07-21T15:16:18.943Z,101260.63
2023-07-21T15:18:45.562Z,101265.16
2023-07-21T15:21:12.272Z,101266.66
2023-07-21T15:23:38.827Z,101263.66
2023-07-21T15:26:05.493Z,101266.28
2023-07-21T15:28:31.996Z,101271.50
2023-07-21T15:31:06.032Z,101272.09
2023-07-21T15:33:32.647Z,101274.53
2023-07-21T15:36:03.690Z,101268.72
2023-07-21T15:38:30.696Z,101267.72
2023-07-21T15:41:00.558Z,101271.97
2023-07-21T15:43:29.228Z,101268.22
2023-07-21T15:45:58.746Z,101279.38
2023-07-21T15:48:29.555Z,101279.72
2023-07-21T15:50:58.337Z,101283.69
2023-07-21T15:53:24.974Z,101283.28
2023-07-21T15:55:54.286Z,101290.41
2023-07-21T15:58:20.838Z,101296.16
2023-07-21T16:00:59.241Z,101289.38
2023-07-21T16:03:29.203Z,101294.13
2023-07-21T16:05:56.476Z,101303.59
2023-07-21T16:08:23.765Z,101302.06
2023-07-21T16:10:52.539Z,101294.31
2023-07-21T16:13:21.944Z,101296.69
2023-07-21T16:15:53.163Z,101298.91
2023-07-21T16:18:23.084Z,101303.03
2023-07-21T16:20:49.560Z,101304.19
2023-07-21T16:23:16.102Z,101310.66
2023-07-21T16:25:45.338Z,101307.59
2023-07-21T16:28:11.880Z,101311.41
2023-07-21T16:30:40.030Z,101306.28
2023-07-21T16:33:06.606Z,101315.59
2023-07-21T16:35:33.875Z,101317.34
2023-07-21T16:38:00.860Z,101316.78
2023-07-21T16:40:28.011Z,101318.97
2023-07-21T16:42:54.934Z,101318.38
2023-07-21T16:45:21.633Z,101323.03
2023-07-21T16:47:50.393Z,101327.88
2023-07-21T16:50:16.942Z,101322.56
2023-07-21T16:52:43.524Z,101324.47
2023-07-21T16:55:10.372Z,101329.13
2023-07-21T16:57:39.333Z,101317.78
2023-07-21T17:00:13.355Z,101312.25
2023-07-21T17:02:42.821Z,101316.69
2023-07-21T17:05:28.989Z,101321.09
2023-07-21T17:07:58.814Z,101319.84
2023-07-21T17:10:27.745Z,101326.09
2023-07-21T17:12:57.328Z,101322.91
2023-07-21T17:15:25.960Z,101317.13
2023-07-21T17:17:54.966Z,101328.78
2023-07-21T17:20:24.083Z,101325.66
2023-07-21T17:22:50.593Z,101329.03
2023-07-21T17:25:17.891Z,101333.78
2023-07-21T17:27:45.167Z,101336.94
2023-07-21T17:30:12.240Z,101342.91
2023-07-21T17:32:41.054Z,101345.81
2023-07-21T17:35:08.723Z,101339.94
2023-07-21T17:37:39.625Z,101347.38
2023-07-21T17:40:11.321Z,101350.84
2023-07-21T17:42:40.999Z,101352.72
2023-07-21T17:45:08.081Z,101354.53
2023-07-21T17:47:37.308Z,101356.47
2023-07-21T17:50:04.715Z,101356.25
2023-07-21T17:52:32.653Z,101356.47
2023-07-21T17:55:01.653Z,101356.91
2023-07-21T17:57:31.014Z,101356.34
2023-07-21T17:59:57.630Z,101355.19
2023-07-21T18:02:24.462Z,101356.78
2023-07-21T18:04:51.075Z,101357.00
2023-07-21T18:07:17.569Z,101369.28
2023-07-21T18:09:44.178Z,101361.22
2023-07-21T18:12:13.290Z,101364.31
2023-07-21T18:14:42.339Z,101366.22
2023-07-21T18:17:08.835Z,101372.69
2023-07-21T18:19:38.013Z,101371.97
2023-07-21T18:22:05.140Z,101370.00
2023-07-21T18:24:31.733Z,101376.06
2023-07-21T18:26:58.912Z,101372.16
2023-07-21T18:29:28.254Z,101374.44
2023-07-21T18:31:54.956Z,101381.50
2023-07-21T18:34:22.523Z,101373.19
2023-07-21T18:36:49.281Z,101378.25
2023-07-21T18:39:16.664Z,101384.06
2023-07-21T18:41:48.028Z,101391.25
2023-07-21T18:44:14.590Z,101386.91
2023-07-21T18:46:41.160Z,101389.72
2023-07-21T18:49:12.247Z,101394.13
2023-07-21T18:51:38.758Z,101398.38
2023-07-21T18:54:07.689Z,101392.22
2023-07-21T18:56:36.500Z,101397.47
2023-07-21T18:59:05.275Z,101400.25
2023-07-21T19:01:34.472Z,101402.88
2023-07-21T19:04:02.255Z,101407.91
2023-07-21T19:06:31.355Z,101403.16
2023-07-21T19:09:00.468Z,101407.53
2023-07-21T19:11:32.132Z,101412.53
2023-07-21T19:14:01.550Z,101414.97
2023-07-21T19:16:30.806Z,101407.00
2023-07-21T19:18:59.953Z,101419.81
2023-07-21T19:21:30.114Z,101419.44
2023-07-21T19:24:01.217Z,101422.44
2023-07-21T19:26:35.160Z,101421.63
2023-07-21T19:29:02.016Z,101424.00
2023-07-21T19:31:34.868Z,101432.63
2023-07-21T19:34:07.024Z,101431.59
2023-07-21T19:36:33.701Z,101446.75
2023-07-21T19:39:05.068Z,101453.56
2023-07-21T19:41:33.800Z,101445.56
2023-07-21T19:44:00.684Z,101444.75
2023-07-21T19:46:32.636Z,101449.94
2023-07-21T19:48:59.968Z,101445.34
2023-07-21T19:51:28.882Z,101450.94
2023-07-21T19:53:58.530Z,101456.91
2023-07-21T19:56:25.165Z,101456.31
2023-07-21T19:58:53.065Z,101461.50
2023-07-21T20:01:27.063Z,101455.91
2023-07-21T20:03:56.238Z,101463.91
2023-07-21T20:06:23.268Z,101462.31
2023-07-21T20:08:49.946Z,101457.31
2023-07-21T20:11:16.443Z,101458.91
2023-07-21T20:13:42.963Z,101459.13
2023-07-21T20:16:09.518Z,101461.16
2023-07-21T20:18:36.540Z,101466.56
2023-07-21T20:21:10.354Z,101468.38
2023-07-21T20:23:36.912Z,101461.22
2023-07-21T20:26:09.434Z,101460.66
2023-07-21T20:28:38.519Z,101465.06
2023-07-21T20:31:05.887Z,101460.88
2023-07-21T20:33:34.827Z,101466.28
2023-07-21T20:36:05.686Z,101466.88
2023-07-21T20:38:32.710Z,101463.66
2023-07-21T20:41:08.266Z,101474.41
2023-07-21T20:43:39.397Z,101462.03
2023-07-21T20:46:05.953Z,101472.81
2023-07-21T20:48:34.061Z,101474.97
2023-07-21T20:51:03.134Z,101476.75
2023-07-21T20:53:30.272Z,101484.69
2023-07-21T20:56:00.707Z,101474.72
2023-07-21T20:58:29.545Z,101481.47
2023-07-21T21:01:02.377Z,101482.25
2023-07-21T21:03:31.325Z,101476.06
2023-07-21T21:06:07.257Z,101485.41
2023-07-21T21:08:36.130Z,101482.22
2023-07-21T21:11:03.188Z,101480.38
2023-07-21T21:13:29.842Z,101482.16
2023-07-21T21:16:02.901Z,101489.91
2023-07-21T21:18:32.037Z,101493.28
2023-07-21T21:20:58.675Z,101491.91
2023-07-21T21:23:27.264Z,101495.28
2023-07-21T21:25:57.607Z,101498.44
2023-07-21T21:28:24.833Z,101492.25
2023-07-21T21:30:58.879Z,101498.44
2023-07-21T21:33:26.238Z,101498.63
2023-07-21T21:35:56.310Z,101497.63
2023-07-21T21:38:25.333Z,101494.03
2023-07-21T21:40:54.995Z,101495.56
2023-07-21T21:43:23.741Z,101498.28
2023-07-21T21:45:51.878Z,101495.47
2023-07-21T21:48:20.925Z,101497.47
2023-07-21T21:50:48.693Z,101495.41
2023-07-21T21:53:15.191Z,101492.78
2023-07-21T21:55:43.991Z,101497.75
2023-07-21T21:58:10.831Z,101503.28
2023-07-21T22:00:41.750Z,101506.03
2023-07-21T22:03:12.751Z,101500.56
2023-07-21T22:05:39.491Z,101503.47
2023-07-21T22:08:06.066Z,101509.00
2023-07-21T22:10:32.566Z,101513.00
2023-07-21T22:13:02.291Z,101516.53
2023-07-21T22:15:28.833Z,101514.31
2023-07-21T22:17:59.841Z,101515.28
2023-07-21T22:20:28.109Z,101502.38
2023-07-21T22:22:55.017Z,101501.16
2023-07-21T22:25:32.235Z,101495.00
2023-07-21T22:28:04.590Z,101494.19
2023-07-21T22:30:34.370Z,101495.78
2023-07-21T22:33:02.291Z,101496.34
2023-07-21T22:35:29.739Z,101489.97
2023-07-21T22:38:03.674Z,101497.53
2023-07-21T22:40:36.638Z,101496.13
2023-07-21T22:43:03.658Z,101497.81
2023-07-21T22:45:32.782Z,101498.69
2023-07-21T22:48:01.481Z,101496.66
2023-07-21T22:50:28.105Z,101499.78
2023-07-21T22:52:59.568Z,101506.44
2023-07-21T22:55:28.505Z,101496.22
2023-07-21T22:57:57.389Z,101498.38
2023-07-21T23:00:26.383Z,101496.78
2023-07-21T23:02:55.580Z,101495.34
2023-07-21T23:05:22.702Z,101496.53
2023-07-21T23:07:51.888Z,101500.00
2023-07-21T23:10:18.876Z,101500.00
2023-07-21T23:12:46.975Z,101502.78
2023-07-21T23:15:13.522Z,101494.84
2023-07-21T23:17:42.904Z,101502.41
2023-07-21T23:20:12.265Z,101501.59
2023-07-21T23:22:38.773Z,101500.19
2023-07-21T23:25:15.249Z,101504.19
2023-07-21T23:27:44.484Z,101499.81
2023-07-21T23:30:12.896Z,101499.19
2023-07-21T23:32:39.621Z,101504.56
2023-07-21T23:35:07.497Z,101500.78
2023-07-21T23:37:33.999Z,101506.59
2023-07-21T23:40:07.194Z,101504.97
2023-07-21T23:42:33.690Z,101503.31
2023-07-21T23:45:00.942Z,101506.88
2023-07-21T23:47:28.285Z,101497.34
2023-07-21T23:49:54.844Z,101497.44
2023-07-21T23:52:21.326Z,101494.97
2023-07-21T23:54:47.869Z,101492.13
2023-07-21T23:57:16.909Z,101499.53
2023-07-21T23:59:48.256Z,101493.38
